Strona główna
METAR-TAF:

METAR-TAF

Lotnisko :

Port lotniczy Windsor

Windsor, Ontario, Kanada

Szerokość geograficzna: 42-16N, Długość geograficzna: 082-58W, wysokość: 190 m

Aktualna obserwacja pogody

Raport powstał 20 minut temu, godzina 07:00 UTC
Wiatr 4 kt od północ
Temperatura 9°C
Wilgotność 76%
Ciśnienie 1024 hPa
Widzialność: 14.5 km
bezchmurnie

METAR: CYQG 310700Z AUTO 35004KT 9SM CLR 09/05 A3023 RMK SLP238

czas: 03:20 (07:20 UTC)

Prognoza

Raport powstał 1 godzina i 42 minut temu, godzina 05:38 UTC
Prognoza ważna od 31 godzina 06 UTC do 01 godzina 06 UTC
Wiatr 8 kt od północ
Widzialność: 10 km
bezchmurnie
Stopniowe zmiany
od 01 godzina 01 UTC do 01 godzina 03 UTC
Wiatr 5 kt od zachodnio-południowy zachód

TAF: CYQG 310538Z 3106/0106 01008KT P6SM SKC BECMG 0101/0103 24005KT RMK FCST BASED ON AUTO OBS. NXT FCST BY 311200Z

Obserwacja i prognoza pogody dla ponad 4000 lotnisk (raport METAR i TAF).

Dostępne stacje oznaczono żółtymi i czerwonymi punktami na mapie.

Najedź kursorem aby zobaczyć nazwę stacji.

Kliknij aby zobaczyć obserwacje i prognozy pogody.

Aby zmienić mapę: kliknij na zielony przycisk z czarnym krzyżykiem, aby powiększyć; na zielony przycisk z myślnikiem, aby pomniejszyć; na zielone strzałki, aby przejść do map sąsiednich.


METAR-TAF: